Time;durP1;ratioP1;P1;durP2;ratioP2;P2;SDS_P1;SDS_P2;PMS_P1;PMS_P2;Temp;Humidity;BMP_temperature;BMP_pressure;BME280_temperature;BME280_humidity;BME280_pressure;Samples;Min_cycle;Max_cycle;Signal;HPM_P1;HPM_P2
2022/05/14 00:01:58;;;;;;;;;;;23.70;40.40;;;;;;8297606;28;19922;-46
2022/05/14 00:06:01;;;;;;;;;;;23.70;40.40;;;;;;8297310;28;20048;-46
2022/05/14 00:10:02;;;;;;;;;;;23.70;40.40;;;;;;8297480;28;20422;-47
2022/05/14 00:14:04;;;;;;;;;;;23.70;40.40;;;;;;8297440;28;19926;-46
2022/05/14 00:18:05;;;;;;;;;;;23.70;40.40;;;;;;8296944;28;19971;-45
2022/05/14 00:22:06;;;;;;;;;;;23.70;40.40;;;;;;8297500;28;20025;-45
2022/05/14 00:26:06;;;;;;;;;;;23.70;40.40;;;;;;8297604;28;19917;-45
2022/05/14 00:30:07;;;;;;;;;;;23.70;40.40;;;;;;8296648;28;20347;-46
2022/05/14 00:34:08;;;;;;;;;;;23.60;40.40;;;;;;8297440;28;20342;-46
2022/05/14 00:38:09;;;;;;;;;;;23.60;40.40;;;;;;8302978;28;19918;-46
2022/05/14 00:42:10;;;;;;;;;;;23.60;40.30;;;;;;8302871;28;20432;-45
2022/05/14 00:46:13;;;;;;;;;;;23.60;40.40;;;;;;8303352;28;19921;-46
2022/05/14 00:50:32;;;;;;;;;;;23.60;40.40;;;;;;8303197;28;19972;-47
2022/05/14 00:54:36;;;;;;;;;;;23.60;40.40;;;;;;8302258;28;20383;-46
2022/05/14 00:58:46;;;;;;;;;;;23.60;40.40;;;;;;8302825;28;19964;-47
2022/05/14 01:02:47;;;;;;;;;;;23.60;40.40;;;;;;8302477;28;19928;-47
2022/05/14 01:06:53;;;;;;;;;;;23.60;40.40;;;;;;8301645;28;19918;-47
2022/05/14 01:10:54;;;;;;;;;;;23.60;40.40;;;;;;8302546;28;19917;-46
2022/05/14 01:15:05;;;;;;;;;;;23.60;40.40;;;;;;8301845;28;20322;-46
2022/05/14 01:19:05;;;;;;;;;;;23.60;40.40;;;;;;8304843;28;20028;-48
2022/05/14 01:23:25;;;;;;;;;;;23.60;40.40;;;;;;8302150;28;19924;-48
2022/05/14 01:27:25;;;;;;;;;;;23.50;40.40;;;;;;8301402;28;19925;-47
2022/05/14 01:31:27;;;;;;;;;;;23.50;40.40;;;;;;8302103;28;20346;-47
2022/05/14 01:35:27;;;;;;;;;;;23.50;40.40;;;;;;8301745;28;19924;-47
2022/05/14 01:39:28;;;;;;;;;;;23.50;40.40;;;;;;8301065;28;19928;-46
2022/05/14 01:43:28;;;;;;;;;;;23.50;40.40;;;;;;8301478;28;20004;-46
2022/05/14 01:47:32;;;;;;;;;;;23.50;40.40;;;;;;8301331;28;19917;-46
2022/05/14 01:51:33;;;;;;;;;;;23.50;40.40;;;;;;8300979;28;19925;-47
2022/05/14 01:55:34;;;;;;;;;;;23.50;40.40;;;;;;8300939;28;19917;-46
2022/05/14 01:59:35;;;;;;;;;;;23.50;40.90;;;;;;8299582;28;20367;-46
2022/05/14 02:03:35;;;;;;;;;;;23.40;40.40;;;;;;8300664;28;19925;-47
2022/05/14 02:07:36;;;;;;;;;;;23.40;40.40;;;;;;8300773;28;19914;-47
2022/05/14 02:11:39;;;;;;;;;;;23.40;40.40;;;;;;8300540;28;20016;-46
2022/05/14 02:15:39;;;;;;;;;;;23.40;40.30;;;;;;8299904;28;19918;-46
2022/05/14 02:19:40;;;;;;;;;;;23.40;40.40;;;;;;8300237;28;20333;-47
2022/05/14 02:23:40;;;;;;;;;;;23.40;40.40;;;;;;8300045;28;19925;-48
2022/05/14 02:27:41;;;;;;;;;;;23.40;40.40;;;;;;8299436;28;19917;-47
2022/05/14 02:31:41;;;;;;;;;;;23.40;40.40;;;;;;8299982;28;19926;-46
2022/05/14 02:35:43;;;;;;;;;;;23.40;40.40;;;;;;8299834;28;19917;-46
2022/05/14 02:39:44;;;;;;;;;;;23.40;40.40;;;;;;8299195;28;20334;-46
2022/05/14 02:43:44;;;;;;;;;;;23.40;40.40;;;;;;8299500;28;20068;-46
2022/05/14 02:47:45;;;;;;;;;;;23.30;40.40;;;;;;8299446;28;20028;-46
2022/05/14 02:51:45;;;;;;;;;;;23.30;40.40;;;;;;8299011;28;19929;-46
2022/05/14 02:55:46;;;;;;;;;;;23.30;40.40;;;;;;8299390;28;19917;-45
2022/05/14 02:59:46;;;;;;;;;;;23.30;40.40;;;;;;8298360;28;19924;-47
2022/05/14 03:03:47;;;;;;;;;;;23.30;40.50;;;;;;8298908;28;19929;-46
2022/05/14 03:07:47;;;;;;;;;;;23.30;40.40;;;;;;8298781;28;19917;-46
2022/05/14 03:11:48;;;;;;;;;;;23.30;40.40;;;;;;8298436;28;19934;-45
2022/05/14 03:15:49;;;;;;;;;;;23.30;40.50;;;;;;8298590;28;20025;-45
2022/05/14 03:19:50;;;;;;;;;;;23.30;40.50;;;;;;8298458;28;20020;-47
2022/05/14 03:23:50;;;;;;;;;;;23.30;40.40;;;;;;8298080;28;19940;-47
2022/05/14 03:27:51;;;;;;;;;;;23.30;40.50;;;;;;8298314;28;19917;-47
2022/05/14 03:31:51;;;;;;;;;;;23.30;40.40;;;;;;8298308;28;19972;-47
2022/05/14 03:35:52;;;;;;;;;;;23.30;40.40;;;;;;8297674;28;20290;-46
2022/05/14 03:39:52;;;;;;;;;;;23.30;40.40;;;;;;8298130;28;19957;-47
2022/05/14 03:43:53;;;;;;;;;;;23.20;40.40;;;;;;8297910;28;19965;-48
2022/05/14 03:47:53;;;;;;;;;;;23.20;40.40;;;;;;8297662;28;19917;-47
2022/05/14 03:51:54;;;;;;;;;;;23.20;40.40;;;;;;8298009;28;19926;-47
2022/05/14 03:55:55;;;;;;;;;;;23.20;40.40;;;;;;8297916;28;19924;-46
2022/05/14 03:59:55;;;;;;;;;;;23.20;40.30;;;;;;8297284;28;19922;-47
2022/05/14 04:03:56;;;;;;;;;;;23.20;40.30;;;;;;8297904;28;19929;-47
2022/05/14 04:07:56;;;;;;;;;;;23.20;40.30;;;;;;8296830;28;19918;-47
2022/05/14 04:11:57;;;;;;;;;;;23.20;40.30;;;;;;8302184;28;20008;-46
2022/05/14 04:15:57;;;;;;;;;;;23.20;40.30;;;;;;8304070;28;19917;-47
2022/05/14 04:19:58;;;;;;;;;;;23.20;40.30;;;;;;8303929;28;19939;-46
2022/05/14 04:23:59;;;;;;;;;;;23.20;40.30;;;;;;8303411;28;20401;-48
2022/05/14 04:27:59;;;;;;;;;;;23.20;40.30;;;;;;8304243;28;19918;-46
2022/05/14 04:32:00;;;;;;;;;;;23.20;40.40;;;;;;8303429;28;19925;-47
2022/05/14 04:36:00;;;;;;;;;;;23.20;40.40;;;;;;8303108;28;19917;-46
2022/05/14 04:40:01;;;;;;;;;;;23.20;40.30;;;;;;8303383;28;19918;-46
2022/05/14 04:44:01;;;;;;;;;;;23.10;40.30;;;;;;8303257;28;19921;-47
2022/05/14 04:48:02;;;;;;;;;;;23.10;40.30;;;;;;8303410;28;19913;-46
2022/05/14 04:52:03;;;;;;;;;;;23.10;40.30;;;;;;8303035;28;19961;-46
2022/05/14 04:56:03;;;;;;;;;;;23.10;40.30;;;;;;8302991;28;19965;-47
2022/05/14 05:00:04;;;;;;;;;;;23.10;40.30;;;;;;8302485;28;19987;-53
2022/05/14 05:04:05;;;;;;;;;;;23.10;40.30;;;;;;8301134;28;19932;-48
2022/05/14 05:08:06;;;;;;;;;;;23.10;40.30;;;;;;8300818;28;19953;-50
2022/05/14 05:12:07;;;;;;;;;;;23.10;40.30;;;;;;8299939;28;20389;-49
2022/05/14 05:16:07;;;;;;;;;;;23.10;40.30;;;;;;8300218;28;19964;-46
2022/05/14 05:20:09;;;;;;;;;;;23.10;40.30;;;;;;8299986;28;19924;-45
2022/05/14 05:24:10;;;;;;;;;;;23.10;40.30;;;;;;8299826;28;19960;-47
2022/05/14 05:28:10;;;;;;;;;;;23.10;40.30;;;;;;8300139;28;19921;-46
2022/05/14 05:32:11;;;;;;;;;;;23.10;40.30;;;;;;8299778;28;19925;-45
2022/05/14 05:36:11;;;;;;;;;;;23.10;40.30;;;;;;8299519;28;19922;-46
2022/05/14 05:40:12;;;;;;;;;;;23.10;40.30;;;;;;8300127;28;19917;-50
2022/05/14 05:44:13;;;;;;;;;;;23.10;40.30;;;;;;8299513;28;19917;-48
2022/05/14 05:48:14;;;;;;;;;;;23.00;40.20;;;;;;8299369;28;19917;-46
2022/05/14 05:52:14;;;;;;;;;;;23.00;40.20;;;;;;8299514;28;19956;-45
2022/05/14 06:00:35;;;;;;;;;;;23.10;40.20;;;;;;8298611;28;20049;-49
2022/05/14 06:04:36;;;;;;;;;;;23.00;40.20;;;;;;8240132;28;1724395;-48
2022/05/14 06:08:36;;;;;;;;;;;23.00;40.20;;;;;;8300774;28;20286;-48
2022/05/14 06:12:38;;;;;;;;;;;23.10;40.30;;;;;;8299803;28;19925;-45
2022/05/14 06:16:39;;;;;;;;;;;23.10;40.30;;;;;;8300321;28;19924;-45
2022/05/14 06:20:39;;;;;;;;;;;23.00;40.20;;;;;;8300141;28;19925;-48
2022/05/14 06:24:40;;;;;;;;;;;23.10;40.20;;;;;;8299586;28;19918;-48
2022/05/14 06:28:40;;;;;;;;;;;23.00;40.10;;;;;;8300348;28;19970;-46
2022/05/14 06:32:41;;;;;;;;;;;23.00;40.10;;;;;;8299145;28;19925;-47
2022/05/14 06:36:42;;;;;;;;;;;23.10;40.10;;;;;;8299401;28;19924;-47
2022/05/14 06:40:42;;;;;;;;;;;23.10;40.60;;;;;;8299774;28;19959;-46
2022/05/14 06:44:43;;;;;;;;;;;23.10;40.00;;;;;;8299474;28;20016;-46
2022/05/14 06:48:43;;;;;;;;;;;23.10;40.00;;;;;;8299184;28;20291;-46
2022/05/14 06:52:47;;;;;;;;;;;23.10;40.00;;;;;;8299373;28;19925;-46
2022/05/14 06:56:47;;;;;;;;;;;23.10;40.00;;;;;;8298619;28;20011;-45
2022/05/14 07:00:48;;;;;;;;;;;23.10;40.00;;;;;;8299088;28;19917;-45
2022/05/14 07:09:09;;;;;;;;;;;23.10;39.90;;;;;;8296524;28;19925;-46
2022/05/14 07:13:10;;;;;;;;;;;23.20;39.90;;;;;;8298596;28;19926;-49
2022/05/14 07:17:11;;;;;;;;;;;23.10;39.90;;;;;;8298834;28;19922;-46
2022/05/14 07:21:11;;;;;;;;;;;23.10;39.90;;;;;;8298284;28;20419;-45
2022/05/14 07:25:12;;;;;;;;;;;23.20;40.00;;;;;;8298786;28;19917;-48
2022/05/14 07:29:14;;;;;;;;;;;23.20;39.90;;;;;;8298861;28;19917;-45
2022/05/14 07:33:14;;;;;;;;;;;23.20;39.90;;;;;;8298887;28;20399;-46
2022/05/14 07:37:16;;;;;;;;;;;23.20;39.90;;;;;;8299297;28;19921;-47
2022/05/14 07:41:17;;;;;;;;;;;23.10;39.90;;;;;;8299456;28;19918;-47
2022/05/14 07:45:19;;;;;;;;;;;23.20;40.00;;;;;;8298725;28;19918;-46
2022/05/14 07:49:21;;;;;;;;;;;23.20;40.00;;;;;;8299655;28;19918;-45
2022/05/14 07:53:21;;;;;;;;;;;23.20;39.90;;;;;;8299626;28;20341;-46
2022/05/14 07:57:21;;;;;;;;;;;23.20;39.90;;;;;;8297881;28;19964;-45
2022/05/14 08:01:22;;;;;;;;;;;23.20;39.90;;;;;;8297800;28;19930;-46
2022/05/14 08:05:22;;;;;;;;;;;23.20;39.80;;;;;;8297864;28;20405;-45
2022/05/14 08:09:23;;;;;;;;;;;23.30;39.90;;;;;;8297215;28;19923;-47
2022/05/14 08:13:24;;;;;;;;;;;23.30;39.80;;;;;;8297321;28;20409;-49
2022/05/14 08:17:26;;;;;;;;;;;23.30;39.80;;;;;;8297277;28;19925;-46
2022/05/14 08:25:46;;;;;;;;;;;23.30;39.80;;;;;;8300400;28;19976;-46
2022/05/14 08:29:47;;;;;;;;;;;23.30;39.80;;;;;;8296792;28;20429;-46
2022/05/14 08:33:48;;;;;;;;;;;23.30;39.80;;;;;;8297664;28;20297;-47
2022/05/14 08:37:50;;;;;;;;;;;23.40;39.80;;;;;;8297061;28;19925;-47
2022/05/14 08:41:52;;;;;;;;;;;23.40;39.80;;;;;;8296682;28;20346;-50
2022/05/14 08:45:53;;;;;;;;;;;23.40;39.80;;;;;;8297232;28;20048;-48
2022/05/14 08:49:54;;;;;;;;;;;23.40;39.80;;;;;;8297225;28;19918;-47
2022/05/14 08:53:55;;;;;;;;;;;23.40;39.80;;;;;;8296654;28;19933;-48
2022/05/14 08:58:08;;;;;;;;;;;23.40;39.80;;;;;;8301027;28;20387;-45
2022/05/14 09:02:13;;;;;;;;;;;23.40;39.80;;;;;;8302684;28;19928;-47
2022/05/14 09:06:14;;;;;;;;;;;23.50;39.80;;;;;;8301991;28;19917;-45
2022/05/14 09:10:30;;;;;;;;;;;23.50;39.80;;;;;;8302314;28;20373;-46
2022/05/14 09:14:32;;;;;;;;;;;23.50;39.80;;;;;;8302397;28;19932;-46
2022/05/14 09:18:41;;;;;;;;;;;23.50;39.80;;;;;;8301083;28;19940;-51
2022/05/14 09:22:47;;;;;;;;;;;23.50;39.80;;;;;;8301987;28;19918;-49
2022/05/14 09:26:48;;;;;;;;;;;23.50;39.80;;;;;;8301428;28;19917;-45
2022/05/14 09:30:53;;;;;;;;;;;23.60;39.80;;;;;;8301663;28;19924;-46
2022/05/14 09:35:03;;;;;;;;;;;23.60;39.80;;;;;;8301900;28;20012;-47
2022/05/14 09:39:06;;;;;;;;;;;23.60;39.80;;;;;;8300921;28;20437;-47
2022/05/14 09:43:09;;;;;;;;;;;23.60;39.70;;;;;;8301238;28;19922;-45
2022/05/14 09:47:11;;;;;;;;;;;23.60;39.70;;;;;;8301016;28;19924;-47
2022/05/14 09:51:11;;;;;;;;;;;23.60;39.70;;;;;;8300398;28;19976;-47
2022/05/14 09:55:11;;;;;;;;;;;23.70;39.80;;;;;;8301212;28;19929;-50
2022/05/14 09:59:41;;;;;;;;;;;23.70;39.70;;;;;;8300943;28;19924;-45
2022/05/14 10:03:42;;;;;;;;;;;23.70;39.70;;;;;;8253692;28;19929;-50
2022/05/14 10:07:49;;;;;;;;;;;23.70;39.70;;;;;;8284862;28;20362;-49
2022/05/14 10:11:53;;;;;;;;;;;23.70;39.70;;;;;;8299972;28;20374;-48
2022/05/14 10:15:53;;;;;;;;;;;23.80;39.70;;;;;;8300263;28;19917;-46
2022/05/14 10:19:57;;;;;;;;;;;23.80;39.60;;;;;;8300288;28;19918;-47
2022/05/14 10:28:51;;;;;;;;;;;23.90;39.50;;;;;;8302629;28;19941;-48
2022/05/14 10:32:54;;;;;;;;;;;23.90;39.50;;;;;;8297944;28;19933;-48
2022/05/14 10:36:58;;;;;;;;;;;23.90;39.50;;;;;;8299553;28;20365;-48
2022/05/14 10:41:02;;;;;;;;;;;23.90;39.40;;;;;;8300000;28;19961;-47
2022/05/14 10:45:07;;;;;;;;;;;23.90;39.50;;;;;;8299168;28;20370;-46
2022/05/14 10:49:11;;;;;;;;;;;24.00;39.50;;;;;;8299259;28;20009;-50
2022/05/14 10:53:12;;;;;;;;;;;24.00;40.00;;;;;;8299143;28;19984;-47
2022/05/14 10:57:15;;;;;;;;;;;24.00;39.40;;;;;;8298630;28;19917;-48
2022/05/14 11:01:34;;;;;;;;;;;24.00;39.40;;;;;;8299134;28;20008;-47
2022/05/14 11:05:54;;;;;;;;;;;24.00;39.50;;;;;;8299274;28;20382;-46
2022/05/14 11:10:06;;;;;;;;;;;24.00;39.40;;;;;;8293584;28;19939;-47
2022/05/14 11:14:07;;;;;;;;;;;24.10;39.50;;;;;;8297407;28;19925;-49
2022/05/14 11:18:10;;;;;;;;;;;24.10;39.50;;;;;;8297686;28;19918;-51
2022/05/14 11:22:24;;;;;;;;;;;24.10;39.50;;;;;;8298297;28;19970;-48
2022/05/14 11:26:26;;;;;;;;;;;24.10;39.40;;;;;;8296858;28;19922;-53
2022/05/14 11:30:43;;;;;;;;;;;24.10;39.40;;;;;;8297830;28;20008;-49
2022/05/14 11:34:57;;;;;;;;;;;24.10;39.40;;;;;;8297817;28;19925;-52
2022/05/14 11:39:22;;;;;;;;;;;24.20;39.40;;;;;;8297466;28;19921;-50
2022/05/14 11:43:33;;;;;;;;;;;24.20;39.40;;;;;;8296872;28;19918;-46
2022/05/14 11:47:50;;;;;;;;;;;24.30;39.30;;;;;;8298397;28;20002;-50
2022/05/14 11:52:04;;;;;;;;;;;24.30;39.30;;;;;;8297663;28;20344;-48
2022/05/14 11:56:07;;;;;;;;;;;24.30;39.30;;;;;;8298200;28;20252;-50
2022/05/14 12:00:17;;;;;;;;;;;24.30;39.30;;;;;;8297372;28;20398;-48
2022/05/14 12:04:25;;;;;;;;;;;24.30;39.30;;;;;;8297876;28;19949;-47
2022/05/14 12:08:29;;;;;;;;;;;24.30;39.30;;;;;;8297332;28;20390;-51
2022/05/14 12:12:41;;;;;;;;;;;24.40;39.30;;;;;;8296833;28;19926;-46
2022/05/14 12:16:48;;;;;;;;;;;24.40;39.30;;;;;;8297585;28;20362;-46
2022/05/14 12:20:59;;;;;;;;;;;24.40;39.30;;;;;;8297291;28;19945;-47
2022/05/14 12:25:02;;;;;;;;;;;24.40;39.30;;;;;;8295801;28;19921;-48
2022/05/14 12:29:21;;;;;;;;;;;24.40;39.30;;;;;;8297281;28;20060;-47
2022/05/14 12:33:23;;;;;;;;;;;24.40;39.20;;;;;;8302240;28;20060;-50
2022/05/14 12:37:32;;;;;;;;;;;24.50;39.30;;;;;;8303794;28;19918;-47
2022/05/14 12:41:39;;;;;;;;;;;24.50;39.30;;;;;;8303318;28;20012;-46
2022/05/14 12:45:50;;;;;;;;;;;24.50;39.20;;;;;;8303123;28;19928;-50
2022/05/14 12:49:50;;;;;;;;;;;24.50;39.20;;;;;;8303324;28;19960;-46
2022/05/14 12:53:52;;;;;;;;;;;24.50;39.20;;;;;;8302649;28;19929;-50
2022/05/14 12:57:54;;;;;;;;;;;24.60;39.30;;;;;;8303133;28;19924;-47
2022/05/14 13:01:56;;;;;;;;;;;24.60;39.20;;;;;;8302865;28;19929;-47
2022/05/14 13:06:00;;;;;;;;;;;24.60;39.70;;;;;;8301582;28;19921;-46
2022/05/14 13:10:01;;;;;;;;;;;24.60;39.10;;;;;;8302359;28;19917;-49
2022/05/14 13:14:16;;;;;;;;;;;24.60;39.10;;;;;;8302287;28;20350;-46
2022/05/14 13:18:24;;;;;;;;;;;24.70;39.10;;;;;;8302114;28;19917;-47
2022/05/14 13:22:36;;;;;;;;;;;24.70;39.10;;;;;;8302042;28;19917;-47
2022/05/14 13:26:36;;;;;;;;;;;24.70;39.10;;;;;;8302644;28;19964;-47
2022/05/14 13:30:37;;;;;;;;;;;24.70;39.00;;;;;;8301390;28;20287;-45
2022/05/14 13:39:00;;;;;;;;;;;24.70;39.00;;;;;;8302643;28;20043;-47
2022/05/14 13:43:03;;;;;;;;;;;24.80;39.00;;;;;;8301378;28;19917;-45
2022/05/14 13:47:03;;;;;;;;;;;24.80;39.10;;;;;;8301400;28;20413;-49
2022/05/14 13:51:16;;;;;;;;;;;24.80;39.10;;;;;;8301215;28;19918;-45
2022/05/14 13:55:27;;;;;;;;;;;24.80;39.00;;;;;;8301492;28;20357;-45
2022/05/14 13:59:30;;;;;;;;;;;24.80;39.00;;;;;;8301239;28;20374;-46
2022/05/14 14:03:51;;;;;;;;;;;24.80;39.00;;;;;;8300721;28;20339;-46
2022/05/14 14:07:51;;;;;;;;;;;24.80;39.00;;;;;;8300474;28;19913;-46
2022/05/14 14:11:52;;;;;;;;;;;24.80;39.00;;;;;;8300376;28;19933;-46
2022/05/14 14:15:52;;;;;;;;;;;24.80;39.00;;;;;;8300515;28;19918;-46
2022/05/14 14:19:53;;;;;;;;;;;24.80;39.00;;;;;;8300556;28;19993;-46
2022/05/14 14:23:55;;;;;;;;;;;24.80;39.00;;;;;;8299860;28;19979;-45
2022/05/14 14:27:56;;;;;;;;;;;24.90;39.00;;;;;;8300068;28;19925;-47
2022/05/14 14:31:57;;;;;;;;;;;24.90;39.00;;;;;;8300273;28;20004;-46
2022/05/14 14:35:57;;;;;;;;;;;24.90;39.00;;;;;;8299972;28;19925;-46
2022/05/14 14:39:58;;;;;;;;;;;24.90;38.90;;;;;;8299666;28;19924;-45
2022/05/14 14:43:58;;;;;;;;;;;24.90;38.90;;;;;;8300217;28;19918;-46
2022/05/14 14:47:59;;;;;;;;;;;24.90;38.90;;;;;;8299369;28;19921;-46
2022/05/14 14:51:59;;;;;;;;;;;24.90;38.90;;;;;;8299495;28;19929;-47
2022/05/14 14:56:00;;;;;;;;;;;24.90;38.90;;;;;;8298803;28;19921;-46
2022/05/14 15:00:01;;;;;;;;;;;24.90;38.90;;;;;;8298614;28;19925;-45
2022/05/14 15:04:09;;;;;;;;;;;25.00;38.90;;;;;;8299322;28;20279;-46
2022/05/14 15:08:10;;;;;;;;;;;24.90;38.90;;;;;;8298897;28;20020;-45
2022/05/14 15:12:11;;;;;;;;;;;24.90;38.90;;;;;;8298430;28;20591;-47
2022/05/14 15:16:12;;;;;;;;;;;24.90;38.90;;;;;;8298626;28;19917;-47
2022/05/14 15:20:13;;;;;;;;;;;25.00;38.90;;;;;;8298724;28;19980;-50
2022/05/14 15:24:13;;;;;;;;;;;25.00;38.90;;;;;;8298046;28;20397;-47
2022/05/14 15:28:15;;;;;;;;;;;25.00;38.90;;;;;;8298337;28;19918;-49
2022/05/14 15:32:17;;;;;;;;;;;25.00;38.90;;;;;;8298576;28;20008;-46
2022/05/14 15:36:18;;;;;;;;;;;25.00;38.90;;;;;;8297829;28;20414;-48
2022/05/14 15:40:18;;;;;;;;;;;25.00;38.90;;;;;;8298535;28;19921;-51
2022/05/14 15:44:21;;;;;;;;;;;25.00;38.80;;;;;;8298128;28;19953;-47
2022/05/14 15:48:23;;;;;;;;;;;25.00;38.90;;;;;;8297483;28;19976;-46
2022/05/14 15:52:31;;;;;;;;;;;25.00;38.90;;;;;;8298029;28;19926;-47
2022/05/14 15:56:33;;;;;;;;;;;25.00;38.90;;;;;;8297858;28;19921;-45
2022/05/14 16:00:34;;;;;;;;;;;25.00;38.80;;;;;;8297268;28;20412;-46
2022/05/14 16:04:34;;;;;;;;;;;25.00;38.70;;;;;;8297913;28;19921;-46
2022/05/14 16:08:35;;;;;;;;;;;25.00;38.60;;;;;;8304550;28;19917;-45
2022/05/14 16:16:55;;;;;;;;;;;25.00;38.50;;;;;;8307002;28;20424;-45
2022/05/14 16:20:56;;;;;;;;;;;25.00;38.50;;;;;;8303678;28;20045;-45
2022/05/14 16:24:57;;;;;;;;;;;25.00;38.50;;;;;;8304507;28;19929;-48
2022/05/14 16:28:57;;;;;;;;;;;25.00;38.40;;;;;;8303861;28;20306;-46
2022/05/14 16:32:58;;;;;;;;;;;25.00;38.50;;;;;;8303252;28;19932;-47
2022/05/14 16:36:58;;;;;;;;;;;25.00;38.40;;;;;;8303706;28;19967;-47
2022/05/14 16:40:59;;;;;;;;;;;25.00;38.40;;;;;;8303468;28;19921;-46
2022/05/14 16:44:59;;;;;;;;;;;25.00;38.40;;;;;;8302827;28;20379;-47
2022/05/14 16:49:00;;;;;;;;;;;25.00;38.40;;;;;;8303072;28;19930;-46
2022/05/14 16:53:01;;;;;;;;;;;25.00;38.30;;;;;;8303292;28;19925;-48
2022/05/14 16:57:02;;;;;;;;;;;25.00;38.40;;;;;;8302563;28;19917;-46
2022/05/14 17:01:03;;;;;;;;;;;25.00;38.30;;;;;;8302995;28;20343;-47
2022/05/14 17:05:03;;;;;;;;;;;25.00;38.30;;;;;;8302593;28;19918;-46
2022/05/14 17:09:04;;;;;;;;;;;25.00;38.30;;;;;;8302179;28;20302;-46
2022/05/14 17:13:05;;;;;;;;;;;25.00;38.30;;;;;;8302536;28;19926;-47
2022/05/14 17:17:06;;;;;;;;;;;25.00;38.30;;;;;;8301772;28;19918;-47
2022/05/14 17:21:07;;;;;;;;;;;25.00;38.30;;;;;;8301793;28;19932;-51
2022/05/14 17:25:08;;;;;;;;;;;25.00;38.30;;;;;;8302332;28;19925;-50
2022/05/14 17:29:09;;;;;;;;;;;25.00;38.40;;;;;;8301984;28;20011;-47
2022/05/14 17:33:10;;;;;;;;;;;25.00;38.30;;;;;;8301453;28;20387;-46
2022/05/14 17:41:29;;;;;;;;;;;25.00;38.90;;;;;;8305038;28;20337;-45
2022/05/14 17:45:30;;;;;;;;;;;24.90;38.30;;;;;;8300999;28;19917;-45
2022/05/14 17:49:30;;;;;;;;;;;25.00;38.40;;;;;;8301295;28;20352;-45
2022/05/14 17:53:31;;;;;;;;;;;25.00;38.40;;;;;;8301141;28;20390;-47
2022/05/14 17:57:31;;;;;;;;;;;24.90;38.40;;;;;;8300682;28;19917;-45
2022/05/14 18:01:32;;;;;;;;;;;24.90;38.40;;;;;;8301064;28;19925;-46
2022/05/14 18:05:33;;;;;;;;;;;24.90;38.40;;;;;;8300875;28;19924;-47
2022/05/14 18:09:34;;;;;;;;;;;24.90;38.50;;;;;;8300107;28;19917;-45
2022/05/14 18:13:34;;;;;;;;;;;24.90;38.50;;;;;;8300856;28;19987;-47
2022/05/14 18:17:35;;;;;;;;;;;24.90;38.50;;;;;;8300602;28;19921;-48
2022/05/14 18:21:36;;;;;;;;;;;24.90;38.50;;;;;;8299804;28;19917;-45
2022/05/14 18:25:40;;;;;;;;;;;24.90;38.50;;;;;;8300407;28;20370;-46
2022/05/14 18:29:50;;;;;;;;;;;24.90;38.50;;;;;;8298911;28;20014;-46
2022/05/14 18:33:57;;;;;;;;;;;24.90;38.50;;;;;;8299623;28;19925;-47
2022/05/14 18:37:59;;;;;;;;;;;24.90;38.50;;;;;;8300034;28;19918;-46
2022/05/14 18:42:00;;;;;;;;;;;24.80;38.40;;;;;;8299269;28;19921;-46
2022/05/14 18:46:05;;;;;;;;;;;24.80;38.50;;;;;;8299910;28;19918;-46
2022/05/14 18:50:06;;;;;;;;;;;24.80;38.50;;;;;;8299465;28;20000;-46
2022/05/14 18:54:07;;;;;;;;;;;24.80;38.50;;;;;;8298876;28;19952;-47
2022/05/14 18:58:07;;;;;;;;;;;24.80;38.50;;;;;;8299739;28;19925;-46
2022/05/14 19:02:09;;;;;;;;;;;24.80;38.50;;;;;;8287860;28;19929;-47
2022/05/14 19:10:33;;;;;;;;;;;24.80;38.50;;;;;;8289689;28;19924;-46
2022/05/14 19:14:33;;;;;;;;;;;24.80;38.50;;;;;;8298636;28;19926;-46
2022/05/14 19:18:34;;;;;;;;;;;24.80;38.50;;;;;;8298561;28;19921;-47
2022/05/14 19:22:35;;;;;;;;;;;24.80;38.50;;;;;;8298673;28;19918;-46
2022/05/14 19:26:35;;;;;;;;;;;24.80;38.50;;;;;;8298414;28;19924;-48
2022/05/14 19:30:37;;;;;;;;;;;24.80;38.50;;;;;;8297923;28;19921;-46
2022/05/14 19:34:37;;;;;;;;;;;24.80;38.50;;;;;;8298167;28;19983;-45
2022/05/14 19:38:39;;;;;;;;;;;24.80;38.50;;;;;;8298368;28;20378;-48
2022/05/14 19:42:42;;;;;;;;;;;24.70;38.50;;;;;;8297387;28;19917;-46
2022/05/14 19:46:43;;;;;;;;;;;24.70;39.00;;;;;;8298122;28;19925;-47
2022/05/14 19:50:44;;;;;;;;;;;24.70;38.50;;;;;;8297988;28;19971;-46
2022/05/14 19:54:45;;;;;;;;;;;24.70;38.50;;;;;;8297327;28;20405;-47
2022/05/14 19:58:45;;;;;;;;;;;24.70;38.50;;;;;;8298159;28;19924;-45
2022/05/14 20:02:47;;;;;;;;;;;24.70;38.50;;;;;;8297939;28;20318;-47
2022/05/14 20:06:47;;;;;;;;;;;24.70;38.50;;;;;;8297243;28;19922;-47
2022/05/14 20:10:48;;;;;;;;;;;24.70;38.50;;;;;;8297557;28;19949;-46
2022/05/14 20:14:49;;;;;;;;;;;24.70;38.50;;;;;;8296977;28;20406;-45
2022/05/14 20:23:09;;;;;;;;;;;24.70;38.50;;;;;;8297333;28;19971;-47
2022/05/14 20:27:10;;;;;;;;;;;24.60;38.40;;;;;;8296940;28;19960;-45
2022/05/14 20:31:10;;;;;;;;;;;24.60;38.50;;;;;;8297274;28;19918;-45
2022/05/14 20:35:11;;;;;;;;;;;24.60;38.50;;;;;;8297269;28;19929;-49
2022/05/14 20:39:12;;;;;;;;;;;24.60;38.50;;;;;;8296839;28;20041;-46
2022/05/14 20:43:14;;;;;;;;;;;24.60;38.40;;;;;;8297341;28;20290;-45
2022/05/14 20:47:14;;;;;;;;;;;24.60;38.40;;;;;;8297058;28;19979;-45
2022/05/14 20:51:15;;;;;;;;;;;24.60;38.50;;;;;;8297109;28;19995;-48
2022/05/14 20:55:16;;;;;;;;;;;24.60;38.40;;;;;;8303234;28;19952;-46
2022/05/14 20:59:17;;;;;;;;;;;24.60;38.50;;;;;;8303173;28;20478;-49
2022/05/14 21:03:17;;;;;;;;;;;24.60;38.50;;;;;;8302290;28;19921;-49
2022/05/14 21:07:18;;;;;;;;;;;24.60;38.50;;;;;;8302765;28;19917;-49
2022/05/14 21:11:20;;;;;;;;;;;24.60;38.50;;;;;;8302892;28;20349;-47
2022/05/14 21:15:25;;;;;;;;;;;24.50;38.40;;;;;;8301928;28;19925;-47
2022/05/14 21:19:25;;;;;;;;;;;24.60;38.50;;;;;;8302783;28;20331;-47
2022/05/14 21:23:26;;;;;;;;;;;24.50;38.40;;;;;;8302401;28;19921;-51
2022/05/14 21:27:26;;;;;;;;;;;24.50;38.50;;;;;;8301727;28;20422;-48
2022/05/14 21:31:27;;;;;;;;;;;24.50;38.50;;;;;;8301945;28;19917;-48
2022/05/14 21:39:49;;;;;;;;;;;24.50;38.50;;;;;;8301604;28;19968;-48
2022/05/14 21:43:49;;;;;;;;;;;24.50;38.50;;;;;;8301647;28;20378;-45
2022/05/14 21:47:50;;;;;;;;;;;24.50;38.50;;;;;;8301146;28;19925;-47
2022/05/14 21:51:53;;;;;;;;;;;24.40;38.50;;;;;;8301177;28;19967;-49
2022/05/14 21:55:54;;;;;;;;;;;24.50;39.10;;;;;;8301159;28;19964;-45
2022/05/14 21:59:54;;;;;;;;;;;24.50;38.50;;;;;;8300936;28;20267;-47
2022/05/14 22:03:55;;;;;;;;;;;24.40;38.50;;;;;;8299943;28;20012;-46
2022/05/14 22:07:56;;;;;;;;;;;24.40;38.50;;;;;;8300136;28;19941;-45
2022/05/14 22:11:57;;;;;;;;;;;24.40;38.50;;;;;;8300366;28;20067;-47
2022/05/14 22:15:57;;;;;;;;;;;24.40;38.50;;;;;;8300649;28;19921;-47
2022/05/14 22:19:57;;;;;;;;;;;24.40;38.50;;;;;;8300710;28;19921;-48
2022/05/14 22:23:58;;;;;;;;;;;24.40;38.50;;;;;;8299857;28;19925;-48
2022/05/14 22:27:58;;;;;;;;;;;24.40;38.50;;;;;;8300176;28;19940;-46
2022/05/14 22:31:59;;;;;;;;;;;24.30;38.50;;;;;;8300177;28;20390;-47
2022/05/14 22:36:00;;;;;;;;;;;24.40;38.50;;;;;;8299749;28;19956;-48
2022/05/14 22:44:20;;;;;;;;;;;24.30;38.50;;;;;;8301741;28;19971;-47
2022/05/14 22:48:21;;;;;;;;;;;24.30;38.50;;;;;;8299183;28;20323;-47
2022/05/14 22:52:21;;;;;;;;;;;24.30;38.50;;;;;;8299310;28;19979;-46
2022/05/14 22:56:22;;;;;;;;;;;24.30;38.50;;;;;;8299557;28;20332;-47
2022/05/14 23:00:23;;;;;;;;;;;24.30;38.60;;;;;;8299225;28;19914;-46
2022/05/14 23:04:23;;;;;;;;;;;24.30;38.60;;;;;;8299588;28;20015;-49
2022/05/14 23:08:24;;;;;;;;;;;24.30;38.60;;;;;;8299411;28;20019;-50
2022/05/14 23:12:25;;;;;;;;;;;24.30;38.60;;;;;;8298554;28;19925;-50
2022/05/14 23:16:25;;;;;;;;;;;24.20;38.50;;;;;;8298286;28;20422;-50
2022/05/14 23:20:27;;;;;;;;;;;24.30;38.60;;;;;;8299015;28;20329;-48
2022/05/14 23:24:27;;;;;;;;;;;24.20;38.60;;;;;;8298203;28;19921;-50
2022/05/14 23:28:28;;;;;;;;;;;24.20;38.60;;;;;;8298561;28;19917;-51
2022/05/14 23:32:28;;;;;;;;;;;24.20;38.60;;;;;;8299472;28;19957;-47
2022/05/14 23:36:29;;;;;;;;;;;24.20;38.60;;;;;;8297897;28;19921;-52
2022/05/14 23:40:30;;;;;;;;;;;24.20;38.60;;;;;;8298634;28;20469;-52
2022/05/14 23:44:30;;;;;;;;;;;24.20;38.60;;;;;;8298064;28;20348;-51
2022/05/14 23:48:31;;;;;;;;;;;24.20;38.70;;;;;;8297472;28;19918;-52
2022/05/14 23:52:31;;;;;;;;;;;24.10;38.60;;;;;;8297771;28;19921;-48
2022/05/14 23:56:32;;;;;;;;;;;24.10;38.60;;;;;;8297793;28;19972;-47
